Time,TemperatureF,DewpointF,PressureIn,WindDirection,WindDirectionDegrees,WindSpeedMPH,WindSpeedGustMPH,Humidity,HourlyPrecipIn,Conditions,Clouds,dailyrainin,SoftwareType,DateUTC
2013-02-05 00:01:00,33.0,25.0,-100.00,ESE,105,6.0,7.0,73,-99.99,,,-99.99,,2013-02-05 07:01:00,
2013-02-05 00:11:00,32.0,25.0,-100.00,East,85,7.0,9.0,74,-99.99,,,-99.99,,2013-02-05 07:11:00,
2013-02-05 00:22:00,32.0,25.0,-100.00,East,85,7.0,9.0,74,-99.99,,,-99.99,,2013-02-05 07:22:00,
2013-02-05 00:32:00,32.0,25.0,-100.00,East,90,7.0,9.0,77,-99.99,,,-99.99,,2013-02-05 07:32:00,
2013-02-05 00:42:00,32.0,25.0,-100.00,East,90,7.0,9.0,77,-99.99,,,-99.99,,2013-02-05 07:42:00,
2013-02-05 00:52:00,32.0,26.0,-100.00,ESE,115,9.0,11.0,79,-99.99,,,-99.99,,2013-02-05 07:52:00,
2013-02-05 01:01:00,32.0,26.0,-100.00,ESE,115,9.0,11.0,79,-99.99,,,-99.99,,2013-02-05 08:01:00,
2013-02-05 01:11:00,32.0,25.0,-100.00,ESE,110,11.0,14.0,75,-99.99,,,-99.99,,2013-02-05 08:11:00,
2013-02-05 01:21:00,32.0,25.0,-100.00,ESE,110,11.0,14.0,75,-99.99,,,-99.99,,2013-02-05 08:21:00,
2013-02-05 01:31:00,32.0,25.0,-100.00,ESE,110,11.0,14.0,75,-99.99,,,-99.99,,2013-02-05 08:31:00,
2013-02-05 04:32:00,30.0,22.0,-100.00,SE,125,11.0,12.0,71,-99.99,,,-99.99,,2013-02-05 11:32:00,
2013-02-05 04:42:00,30.0,22.0,-100.00,SE,125,11.0,12.0,71,-99.99,,,-99.99,,2013-02-05 11:42:00,
2013-02-05 04:52:00,30.0,22.0,-100.00,SE,135,9.0,11.0,70,-99.99,,,-99.99,,2013-02-05 11:52:00,
2013-02-05 05:01:00,30.0,22.0,-100.00,SE,135,9.0,11.0,70,-99.99,,,-99.99,,2013-02-05 12:01:00,
2013-02-05 05:12:00,30.0,22.0,-100.00,ENE,60,6.0,8.0,71,-99.99,,,-99.99,,2013-02-05 12:12:00,
2013-02-05 05:21:00,30.0,22.0,-100.00,ENE,60,6.0,8.0,71,-99.99,,,-99.99,,2013-02-05 12:21:00,
2013-02-05 05:32:00,29.0,22.0,-100.00,ENE,75,4.0,4.0,73,-99.99,,,-99.99,,2013-02-05 12:32:00,
2013-02-05 05:42:00,29.0,22.0,-100.00,ENE,75,4.0,4.0,73,-99.99,,,-99.99,,2013-02-05 12:42:00,
2013-02-05 05:52:00,29.0,22.0,-100.00,East,90,3.0,5.0,75,-99.99,,,-99.99,,2013-02-05 12:52:00,
2013-02-05 06:01:00,29.0,22.0,-100.00,East,90,3.0,5.0,75,-99.99,,,-99.99,,2013-02-05 13:01:00,
2013-02-05 06:12:00,29.0,22.0,-100.00,ENE,70,1.0,1.0,74,-99.99,,,-99.99,,2013-02-05 13:12:00,
2013-02-05 06:21:00,28.0,22.0,-100.00,NNE,15,1.0,1.0,77,-99.99,,,0.00,,2013-02-05 13:21:00,
2013-02-05 06:22:00,29.0,22.0,-100.00,ENE,70,1.0,1.0,74,-99.99,,,-99.99,,2013-02-05 13:22:00,
2013-02-05 06:32:00,28.0,22.0,-100.00,North,350,2.0,3.0,76,-99.99,,,0.00,,2013-02-05 13:32:00,
2013-02-05 06:42:00,28.0,22.0,-100.00,North,350,2.0,3.0,76,-99.99,,,0.00,,2013-02-05 13:42:00,
2013-02-05 06:52:00,28.0,22.0,-100.00,NNE,15,1.0,1.0,77,-99.99,,,0.00,,2013-02-05 13:52:00,
2013-02-05 07:01:00,28.0,22.0,-100.00,NNE,15,1.0,1.0,77,-99.99,,,0.00,,2013-02-05 14:01:00,
2013-02-05 07:12:00,28.0,22.0,-100.00,NNE,15,1.0,1.0,77,-99.99,,,0.00,,2013-02-05 14:12:00,
2013-02-05 07:32:00,28.0,22.0,-100.00,NE,45,1.0,1.0,78,-99.99,,,0.00,,2013-02-05 14:32:00,
2013-02-05 07:42:00,28.0,22.0,-100.00,NE,45,1.0,1.0,78,-99.99,,,0.00,,2013-02-05 14:42:00,
2013-02-05 07:52:00,28.0,22.0,-100.00,NNE,30,3.0,3.0,78,-99.99,,,0.00,,2013-02-05 14:52:00,
2013-02-05 08:02:00,28.0,22.0,-100.00,NNE,30,3.0,3.0,78,-99.99,,,0.00,,2013-02-05 15:02:00,
2013-02-05 08:11:00,28.0,22.0,-100.00,NNE,30,3.0,3.0,78,-99.99,,,0.00,,2013-02-05 15:11:00,
2013-02-05 08:21:00,28.0,22.0,-100.00,NNE,30,3.0,3.0,78,-99.99,,,0.00,,2013-02-05 15:21:00,
2013-02-05 08:22:00,28.0,23.0,-100.00,NW,320,3.0,4.0,79,-99.99,,,0.00,,2013-02-05 15:22:00,
2013-02-05 08:32:00,28.0,23.0,-100.00,North,350,3.0,3.0,79,-99.99,,,0.00,,2013-02-05 15:32:00,
2013-02-05 08:42:00,28.0,23.0,-100.00,North,350,3.0,3.0,79,-99.99,,,0.00,,2013-02-05 15:42:00,
2013-02-05 08:52:00,28.0,23.0,-100.00,NW,320,3.0,4.0,79,-99.99,,,0.00,,2013-02-05 15:52:00,
2013-02-05 09:01:00,28.0,23.0,-100.00,NW,320,3.0,4.0,79,-99.99,,,0.00,,2013-02-05 16:01:00,
2013-02-05 09:11:00,28.0,23.0,-100.00,NW,320,3.0,4.0,79,-99.99,,,0.00,,2013-02-05 16:11:00,
2013-02-05 09:32:00,31.0,24.0,-100.00,NNW,330,3.0,3.0,75,-99.99,,,0.00,,2013-02-05 16:32:00,
2013-02-05 09:42:00,31.0,24.0,-100.00,NNW,330,3.0,3.0,75,-99.99,,,0.00,,2013-02-05 16:42:00,
2013-02-05 09:52:00,32.0,24.0,-100.00,NNW,330,3.0,3.0,72,-99.99,,,0.00,,2013-02-05 16:52:00,
2013-02-05 10:01:00,32.0,24.0,-100.00,NNW,330,3.0,3.0,72,-99.99,,,0.00,,2013-02-05 17:01:00,
2013-02-05 10:11:00,32.0,23.0,-100.00,NNW,345,3.0,4.0,68,-99.99,,,0.00,,2013-02-05 17:11:00,
2013-02-05 10:22:00,32.0,23.0,-100.00,NNW,345,3.0,4.0,68,-99.99,,,0.00,,2013-02-05 17:22:00,
2013-02-05 10:32:00,34.0,23.0,-100.00,NNW,340,3.0,4.0,65,-99.99,,,0.00,,2013-02-05 17:32:00,
2013-02-05 10:42:00,34.0,23.0,-100.00,NNW,340,3.0,4.0,65,-99.99,,,0.00,,2013-02-05 17:42:00,
2013-02-05 10:52:00,36.0,23.0,-100.00,NW,320,3.0,4.0,61,-99.99,,,0.00,,2013-02-05 17:52:00,
2013-02-05 11:02:00,36.0,23.0,-100.00,NW,320,3.0,4.0,61,-99.99,,,0.00,,2013-02-05 18:02:00,
2013-02-05 11:11:00,37.0,23.0,-100.00,WNW,300,5.0,6.0,58,-99.99,,,0.00,,2013-02-05 18:11:00,
2013-02-05 11:22:00,37.0,23.0,-100.00,WNW,300,5.0,6.0,58,-99.99,,,0.00,,2013-02-05 18:22:00,
2013-02-05 11:32:00,37.0,23.0,-100.00,NW,305,4.0,4.0,56,-99.99,,,0.00,,2013-02-05 18:32:00,
2013-02-05 11:42:00,37.0,23.0,-100.00,NW,305,4.0,4.0,56,-99.99,,,0.00,,2013-02-05 18:42:00,
2013-02-05 11:52:00,37.0,23.0,-100.00,NNW,330,5.0,6.0,55,-99.99,,,0.00,,2013-02-05 18:52:00,
2013-02-05 12:02:00,37.0,23.0,-100.00,NNW,330,5.0,6.0,55,-99.99,,,0.00,,2013-02-05 19:02:00,
2013-02-05 12:11:00,37.0,22.0,-100.00,NW,320,8.0,9.0,54,-99.99,,,0.00,,2013-02-05 19:11:00,
2013-02-05 12:21:00,37.0,22.0,-100.00,NW,320,8.0,9.0,54,-99.99,,,0.00,,2013-02-05 19:21:00,
2013-02-05 12:32:00,38.0,23.0,-100.00,NW,325,8.0,9.0,55,-99.99,,,0.00,,2013-02-05 19:32:00,
2013-02-05 12:42:00,38.0,23.0,-100.00,NW,325,8.0,9.0,55,-99.99,,,0.00,,2013-02-05 19:42:00,
2013-02-05 12:52:00,38.0,22.0,-100.00,NNW,340,8.0,9.0,52,-99.99,,,0.00,,2013-02-05 19:52:00,
2013-02-05 13:01:00,38.0,22.0,-100.00,NNW,340,8.0,9.0,52,-99.99,,,0.00,,2013-02-05 20:01:00,
2013-02-05 13:11:00,38.0,22.0,-100.00,NNW,330,7.0,8.0,52,-99.99,,,0.00,,2013-02-05 20:11:00,
2013-02-05 13:21:00,38.0,22.0,-100.00,NNW,330,7.0,8.0,52,-99.99,,,0.00,,2013-02-05 20:21:00,
2013-02-05 13:32:00,39.0,24.0,-100.00,NNW,330,10.0,11.0,54,-99.99,,,0.00,,2013-02-05 20:32:00,
2013-02-05 13:42:00,39.0,24.0,-100.00,NNW,330,10.0,11.0,54,-99.99,,,0.00,,2013-02-05 20:42:00,
2013-02-05 13:52:00,39.0,24.0,-100.00,NW,315,9.0,11.0,54,-99.99,,,0.00,,2013-02-05 20:52:00,
2013-02-05 14:02:00,39.0,24.0,-100.00,NW,315,9.0,11.0,54,-99.99,,,0.00,,2013-02-05 21:02:00,
2013-02-05 14:11:00,40.0,25.0,-100.00,NNW,330,8.0,8.0,54,-99.99,,,0.00,,2013-02-05 21:11:00,
2013-02-05 14:21:00,41.0,25.0,-100.00,NW,310,6.0,7.0,54,-99.99,,,0.00,,2013-02-05 21:21:00,
2013-02-05 14:22:00,40.0,25.0,-100.00,NNW,330,8.0,8.0,54,-99.99,,,0.00,,2013-02-05 21:22:00,
2013-02-05 14:32:00,40.0,25.0,-100.00,NW,310,8.0,11.0,54,-99.99,,,0.00,,2013-02-05 21:32:00,
2013-02-05 14:42:00,40.0,25.0,-100.00,NW,310,8.0,11.0,54,-99.99,,,0.00,,2013-02-05 21:42:00,
2013-02-05 14:52:00,41.0,25.0,-100.00,NW,310,6.0,7.0,54,-99.99,,,0.00,,2013-02-05 21:52:00,
2013-02-05 15:01:00,41.0,25.0,-100.00,NW,310,6.0,7.0,54,-99.99,,,0.00,,2013-02-05 22:01:00,
2013-02-05 15:11:00,41.0,25.0,-100.00,NW,310,6.0,7.0,54,-99.99,,,0.00,,2013-02-05 22:11:00,
2013-02-05 15:32:00,40.0,26.0,-100.00,NNW,330,6.0,8.0,57,-99.99,,,0.00,,2013-02-05 22:32:00,
2013-02-05 15:42:00,40.0,26.0,-100.00,NNW,330,6.0,8.0,57,-99.99,,,0.00,,2013-02-05 22:42:00,
2013-02-05 15:52:00,39.0,26.0,-100.00,NW,320,6.0,9.0,60,-99.99,,,0.00,,2013-02-05 22:52:00,
2013-02-05 16:02:00,39.0,26.0,-100.00,NW,320,6.0,9.0,60,-99.99,,,0.00,,2013-02-05 23:02:00,
2013-02-05 16:11:00,40.0,27.0,-100.00,NW,320,4.0,6.0,61,-99.99,,,0.00,,2013-02-05 23:11:00,
2013-02-05 16:22:00,40.0,27.0,-100.00,NW,320,4.0,6.0,61,-99.99,,,0.00,,2013-02-05 23:22:00,
2013-02-05 16:32:00,41.0,28.0,-100.00,NW,325,7.0,9.0,59,-99.99,,,0.00,,2013-02-05 23:32:00,
2013-02-05 16:42:00,41.0,28.0,-100.00,NW,325,7.0,9.0,59,-99.99,,,0.00,,2013-02-05 23:42:00,
2013-02-05 16:52:00,40.0,27.0,-100.00,NW,320,6.0,8.0,61,-99.99,,,0.00,,2013-02-05 23:52:00,
2013-02-05 17:02:00,40.0,27.0,-100.00,NW,320,6.0,8.0,61,-99.99,,,0.00,,2013-02-06 00:02:00,
2013-02-05 17:11:00,39.0,28.0,-100.00,NNW,330,6.0,8.0,63,-99.99,,,0.00,,2013-02-06 00:11:00,
2013-02-05 17:21:00,39.0,28.0,-100.00,NNW,330,6.0,8.0,63,-99.99,,,0.00,,2013-02-06 00:21:00,
2013-02-05 17:32:00,39.0,28.0,-100.00,NW,320,4.0,6.0,65,-99.99,,,0.00,,2013-02-06 00:32:00,
2013-02-05 17:42:00,39.0,28.0,-100.00,NW,320,4.0,6.0,65,-99.99,,,0.00,,2013-02-06 00:42:00,
2013-02-05 17:52:00,38.0,28.0,-100.00,NW,315,4.0,6.0,66,-99.99,,,0.00,,2013-02-06 00:52:00,
2013-02-05 18:02:00,38.0,28.0,-100.00,NW,315,4.0,6.0,66,-99.99,,,0.00,,2013-02-06 01:02:00,
2013-02-05 18:11:00,37.0,27.0,-100.00,NNW,345,4.0,5.0,67,-99.99,,,0.00,,2013-02-06 01:11:00,
2013-02-05 18:22:00,37.0,27.0,-100.00,NNW,345,4.0,5.0,67,-99.99,,,0.00,,2013-02-06 01:22:00,
2013-02-05 18:32:00,38.0,27.0,-100.00,NNW,345,4.0,4.0,65,-99.99,,,0.00,,2013-02-06 01:32:00,
2013-02-05 18:42:00,38.0,27.0,-100.00,NNW,345,4.0,4.0,65,-99.99,,,0.00,,2013-02-06 01:42:00,
2013-02-05 18:52:00,38.0,27.0,-100.00,NNW,340,5.0,6.0,65,-99.99,,,0.00,,2013-02-06 01:52:00,
2013-02-05 19:01:00,38.0,27.0,-100.00,NNW,340,5.0,6.0,65,-99.99,,,0.00,,2013-02-06 02:01:00,
2013-02-05 19:11:00,39.0,26.0,-100.00,NNW,340,6.0,9.0,60,-99.99,,,0.00,,2013-02-06 02:11:00,
2013-02-05 19:22:00,39.0,26.0,-100.00,NNW,340,6.0,9.0,60,-99.99,,,0.00,,2013-02-06 02:22:00,
2013-02-05 19:32:00,39.0,26.0,-100.00,NNW,345,6.0,9.0,59,-99.99,,,0.00,,2013-02-06 02:32:00,
2013-02-05 19:42:00,39.0,26.0,-100.00,NNW,345,6.0,9.0,59,-99.99,,,0.00,,2013-02-06 02:42:00,
2013-02-05 19:52:00,40.0,26.0,-100.00,North,0,4.0,6.0,58,-99.99,,,0.00,,2013-02-06 02:52:00,
2013-02-05 20:02:00,40.0,26.0,-100.00,North,0,4.0,6.0,58,-99.99,,,0.00,,2013-02-06 03:02:00,
2013-02-05 20:12:00,40.0,26.0,-100.00,North,350,6.0,7.0,58,-99.99,,,0.00,,2013-02-06 03:12:00,
2013-02-05 20:22:00,40.0,26.0,-100.00,North,350,6.0,7.0,58,-99.99,,,0.00,,2013-02-06 03:22:00,
2013-02-05 20:32:00,39.0,25.0,-100.00,North,350,6.0,7.0,57,-99.99,,,-99.99,,2013-02-06 03:32:00,
2013-02-05 20:42:00,39.0,25.0,-100.00,North,350,6.0,7.0,57,-99.99,,,-99.99,,2013-02-06 03:42:00,
2013-02-05 20:52:00,39.0,26.0,-100.00,North,0,6.0,8.0,59,-99.99,,,0.00,,2013-02-06 03:52:00,
2013-02-05 21:02:00,39.0,26.0,-100.00,North,0,6.0,8.0,59,-99.99,,,0.00,,2013-02-06 04:02:00,
2013-02-05 21:11:00,38.0,25.0,-100.00,North,350,6.0,8.0,60,-99.99,,,0.00,,2013-02-06 04:11:00,
2013-02-05 21:21:00,38.0,25.0,-100.00,North,350,6.0,8.0,60,-99.99,,,0.00,,2013-02-06 04:21:00,
2013-02-05 21:32:00,38.0,25.0,-100.00,NNW,340,7.0,8.0,60,-99.99,,,-99.99,,2013-02-06 04:32:00,
2013-02-05 21:42:00,38.0,25.0,-100.00,NNW,340,7.0,8.0,60,-99.99,,,-99.99,,2013-02-06 04:42:00,
2013-02-05 21:52:00,37.0,25.0,-100.00,North,5,6.0,8.0,61,-99.99,,,0.00,,2013-02-06 04:52:00,
2013-02-05 22:02:00,37.0,25.0,-100.00,North,5,6.0,8.0,61,-99.99,,,0.00,,2013-02-06 05:02:00,
2013-02-05 22:12:00,37.0,25.0,-100.00,North,5,8.0,9.0,61,-99.99,,,0.00,,2013-02-06 05:12:00,
2013-02-05 22:22:00,37.0,25.0,-100.00,North,5,8.0,9.0,61,-99.99,,,0.00,,2013-02-06 05:22:00,
2013-02-05 22:32:00,37.0,25.0,-100.00,North,10,7.0,8.0,61,-99.99,,,0.00,,2013-02-06 05:32:00,
2013-02-05 22:41:00,37.0,25.0,-100.00,North,10,7.0,8.0,61,-99.99,,,0.00,,2013-02-06 05:41:00,
2013-02-05 22:52:00,37.0,25.0,-100.00,North,10,7.0,9.0,61,-99.99,,,0.00,,2013-02-06 05:52:00,
2013-02-05 23:01:00,37.0,25.0,-100.00,North,10,7.0,9.0,61,-99.99,,,0.00,,2013-02-06 06:01:00,
2013-02-05 23:11:00,38.0,25.0,-100.00,North,10,6.0,8.0,60,-99.99,,,-99.99,,2013-02-06 06:11:00,
2013-02-05 23:21:00,38.0,25.0,-100.00,North,10,6.0,8.0,60,-99.99,,,-99.99,,2013-02-06 06:21:00,
2013-02-05 23:32:00,38.0,25.0,-100.00,North,10,5.0,6.0,61,-99.99,,,0.00,,2013-02-06 06:32:00,
2013-02-05 23:42:00,38.0,25.0,-100.00,North,10,5.0,6.0,61,-99.99,,,0.00,,2013-02-06 06:42:00,
2013-02-05 23:51:00,38.0,25.0,-100.00,North,0,8.0,9.0,61,-99.99,,,0.00,,2013-02-06 06:51:00,